Time;durP1;ratioP1;P1;durP2;ratioP2;P2;SDS_P1;SDS_P2;PMS_P1;PMS_P2;Temp;Humidity;BMP_temperature;BMP_pressure;BME280_temperature;BME280_humidity;BME280_pressure;Samples;Min_cycle;Max_cycle;Signal;HPM_P1;HPM_P2
2021/03/22 00:00:51;;;;;;;5.15;1.17;;;4.90;81.20;;;;;;2046250;28;20035;-84
2021/03/22 00:01:52;;;;;;;7.05;1.27;;;4.80;81.20;;;;;;2064775;28;20030;-84
2021/03/22 00:02:53;;;;;;;3.47;0.90;;;4.80;81.20;;;;;;2066924;28;20526;-84
2021/03/22 00:03:54;;;;;;;4.15;1.15;;;4.80;81.20;;;;;;2056509;28;20050;-84
2021/03/22 00:04:55;;;;;;;5.80;1.27;;;4.80;81.20;;;;;;2047319;28;20028;-83
2021/03/22 00:05:56;;;;;;;4.60;1.13;;;4.80;81.30;;;;;;2045538;28;20149;-84
2021/03/22 00:06:56;;;;;;;7.47;1.77;;;4.80;81.40;;;;;;2040030;29;20388;-84
2021/03/22 00:07:57;;;;;;;5.60;1.35;;;4.80;81.50;;;;;;2064560;28;20395;-83
2021/03/22 00:08:58;;;;;;;4.07;1.00;;;4.70;81.50;;;;;;2056575;28;20102;-84
2021/03/22 00:09:58;;;;;;;6.47;1.30;;;4.70;81.50;;;;;;2047168;28;20516;-83
2021/03/22 00:10:59;;;;;;;7.63;1.27;;;4.70;81.50;;;;;;2042923;29;20024;-83
2021/03/22 00:12:00;;;;;;;5.22;1.30;;;4.70;81.60;;;;;;2051244;28;20118;-84
2021/03/22 00:13:01;;;;;;;4.95;1.00;;;4.70;81.70;;;;;;2071729;28;20022;-84
2021/03/22 00:14:01;;;;;;;4.35;1.30;;;4.70;81.80;;;;;;2064407;28;20134;-84
2021/03/22 00:15:05;;;;;;;4.90;1.50;;;4.70;81.90;;;;;;2049722;28;20417;-83
2021/03/22 00:16:12;;;;;;;6.60;1.27;;;4.70;81.90;;;;;;2051323;28;20061;-84
2021/03/22 00:17:13;;;;;;;4.85;1.10;;;4.70;81.90;;;;;;2064660;28;20028;-84
2021/03/22 00:18:18;;;;;;;5.07;1.23;;;4.60;81.80;;;;;;2065303;28;20057;-84
2021/03/22 00:19:19;;;;;;;4.88;1.33;;;4.60;81.90;;;;;;2073916;28;20030;-84
2021/03/22 00:20:20;;;;;;;5.28;1.00;;;4.60;81.90;;;;;;2054951;28;20118;-83
2021/03/22 00:21:21;;;;;;;6.13;1.48;;;4.70;82.10;;;;;;2066258;28;20031;-84
2021/03/22 00:22:22;;;;;;;8.80;1.50;;;4.60;82.00;;;;;;2058958;28;20046;-84
2021/03/22 00:23:22;;;;;;;5.57;1.52;;;4.60;82.10;;;;;;2057001;28;20035;-84
2021/03/22 00:24:23;;;;;;;5.63;1.05;;;4.70;82.10;;;;;;2065182;28;20133;-84
2021/03/22 00:25:24;;;;;;;3.67;1.23;;;4.60;82.10;;;;;;2063465;28;20189;-84
2021/03/22 00:26:25;;;;;;;6.15;1.50;;;4.60;82.20;;;;;;2058758;28;20035;-84
2021/03/22 00:27:26;;;;;;;4.45;1.05;;;4.60;82.20;;;;;;2057225;28;20427;-84
2021/03/22 00:28:27;;;;;;;7.65;1.27;;;4.60;82.20;;;;;;2050718;28;20495;-84
2021/03/22 00:29:28;;;;;;;9.38;2.03;;;4.70;82.90;;;;;;2050961;28;20031;-83
2021/03/22 00:30:35;;;;;;;9.05;1.38;;;4.60;82.80;;;;;;2057881;28;20034;-84
2021/03/22 00:31:35;;;;;;;6.43;1.30;;;4.60;82.30;;;;;;2064768;28;20026;-84
2021/03/22 00:32:36;;;;;;;4.78;1.58;;;4.60;82.30;;;;;;2065852;28;20153;-84
2021/03/22 00:33:37;;;;;;;6.20;1.23;;;4.70;82.30;;;;;;2064275;28;20027;-84
2021/03/22 00:34:37;;;;;;;5.22;1.63;;;4.60;82.30;;;;;;2050412;28;20040;-84
2021/03/22 00:35:39;;;;;;;5.45;1.20;;;4.60;82.30;;;;;;2055226;28;20595;-84
2021/03/22 00:36:39;;;;;;;5.68;1.13;;;4.60;82.40;;;;;;2065925;28;20057;-84
2021/03/22 00:37:40;;;;;;;4.38;1.00;;;4.60;82.40;;;;;;2057920;28;20035;-84
2021/03/22 00:38:40;;;;;;;6.30;1.25;;;4.60;82.40;;;;;;2055991;28;20121;-85
2021/03/22 00:39:41;;;;;;;8.27;1.58;;;4.60;82.40;;;;;;2044101;28;20524;-84
2021/03/22 00:40:44;;;;;;;5.00;1.30;;;4.60;82.50;;;;;;2039342;29;20087;-84
2021/03/22 00:41:44;;;;;;;7.20;1.50;;;4.60;82.60;;;;;;2048390;28;20032;-84
2021/03/22 00:42:45;;;;;;;7.50;1.35;;;4.60;82.60;;;;;;2065181;28;20058;-84
2021/03/22 00:43:46;;;;;;;5.78;1.30;;;4.60;82.70;;;;;;2056227;28;20058;-84
2021/03/22 00:44:47;;;;;;;6.32;1.33;;;4.60;82.70;;;;;;2048805;28;20027;-84
2021/03/22 00:45:47;;;;;;;4.60;1.17;;;4.60;82.70;;;;;;2048433;28;20077;-84
2021/03/22 00:46:48;;;;;;;4.57;1.23;;;4.60;82.80;;;;;;2059866;28;20034;-84
2021/03/22 00:47:50;;;;;;;7.35;1.77;;;4.60;82.90;;;;;;2049329;28;20090;-84
2021/03/22 00:48:50;;;;;;;4.55;1.40;;;4.60;82.90;;;;;;2050126;28;20020;-85
2021/03/22 00:49:51;;;;;;;6.28;1.17;;;4.60;82.90;;;;;;2063773;28;20061;-84
2021/03/22 00:50:52;;;;;;;7.80;1.63;;;4.50;82.90;;;;;;2060745;28;20041;-84
2021/03/22 00:51:52;;;;;;;5.35;1.42;;;4.50;83.00;;;;;;2064042;28;20050;-84
2021/03/22 00:52:53;;;;;;;7.10;1.70;;;4.50;83.00;;;;;;2057794;28;20504;-85
2021/03/22 00:53:54;;;;;;;6.38;1.65;;;4.50;83.00;;;;;;2057804;28;20118;-84
2021/03/22 00:54:55;;;;;;;7.65;1.50;;;4.50;83.10;;;;;;2053797;28;20078;-84
2021/03/22 00:55:56;;;;;;;5.85;1.33;;;4.50;83.20;;;;;;2058140;28;20133;-85
2021/03/22 00:56:56;;;;;;;6.22;1.60;;;4.50;83.20;;;;;;2056931;28;20065;-84
2021/03/22 00:57:57;;;;;;;6.90;1.70;;;4.50;83.80;;;;;;2044617;28;20031;-85
2021/03/22 00:58:57;;;;;;;4.95;1.58;;;4.50;83.90;;;;;;2049964;29;20031;-85
2021/03/22 00:59:58;;;;;;;5.65;1.50;;;4.50;83.30;;;;;;2052537;28;20060;-84
2021/03/22 01:01:01;;;;;;;6.03;1.42;;;4.50;83.30;;;;;;2056671;28;20035;-84
2021/03/22 01:02:03;;;;;;;6.40;1.50;;;4.50;83.40;;;;;;2065434;28;20030;-84
2021/03/22 01:03:06;;;;;;;4.82;1.23;;;4.50;83.40;;;;;;2069749;28;20073;-84
2021/03/22 01:04:07;;;;;;;6.85;1.60;;;4.50;84.00;;;;;;2074352;28;20025;-84
2021/03/22 01:05:08;;;;;;;6.75;1.50;;;4.50;83.40;;;;;;2043891;28;20038;-83
2021/03/22 01:06:09;;;;;;;7.40;1.40;;;4.50;83.40;;;;;;2048709;28;20035;-84
2021/03/22 01:07:10;;;;;;;6.70;1.83;;;4.40;83.40;;;;;;2056926;28;20114;-84
2021/03/22 01:08:11;;;;;;;5.63;1.48;;;4.40;83.50;;;;;;2041633;29;20032;-84
2021/03/22 01:09:12;;;;;;;8.80;1.48;;;4.40;83.50;;;;;;2049648;28;20058;-84
2021/03/22 01:10:24;;;;;;;6.30;1.52;;;4.40;83.60;;;;;;2066239;28;20590;-84
2021/03/22 01:11:25;;;;;;;4.60;1.60;;;4.40;83.60;;;;;;2069550;28;21835;-83
2021/03/22 01:12:25;;;;;;;3.80;1.63;;;4.40;83.60;;;;;;2057608;28;20031;-84
2021/03/22 01:13:54;;;;;;;7.20;1.67;;;4.40;83.70;;;;;;2059772;28;20089;-84
2021/03/22 01:14:55;;;;;;;7.78;1.80;;;4.40;83.70;;;;;;2062509;28;20037;-84
2021/03/22 01:15:57;;;;;;;6.70;1.45;;;4.40;83.60;;;;;;2064507;28;20409;-84
2021/03/22 01:16:57;;;;;;;6.53;1.60;;;4.40;83.70;;;;;;2057051;28;20022;-84
2021/03/22 01:17:58;;;;;;;6.97;1.30;;;4.40;84.30;;;;;;2054578;28;20054;-84
2021/03/22 01:19:04;;;;;;;6.75;1.55;;;4.40;84.40;;;;;;2057394;28;20150;-84
2021/03/22 01:20:14;;;;;;;6.55;1.58;;;4.40;83.80;;;;;;2068822;28;20029;-84
2021/03/22 01:21:40;;;;;;;4.25;1.42;;;4.40;83.80;;;;;;2065608;28;20037;-84
2021/03/22 01:22:41;;;;;;;6.13;1.40;;;4.40;83.80;;;;;;2060634;28;20030;-84
2021/03/22 01:23:41;;;;;;;6.85;1.83;;;4.30;83.70;;;;;;2047462;28;20047;-84
2021/03/22 01:24:42;;;;;;;6.82;1.83;;;4.40;83.80;;;;;;2039934;29;20395;-84
2021/03/22 01:25:43;;;;;;;5.57;1.90;;;4.30;83.80;;;;;;2057589;28;20481;-84
2021/03/22 01:26:43;;;;;;;6.70;1.58;;;4.40;84.00;;;;;;2057355;28;20109;-84
2021/03/22 01:27:44;;;;;;;5.22;1.50;;;4.40;84.00;;;;;;2051972;28;20039;-83
2021/03/22 01:28:45;;;;;;;6.15;1.83;;;4.40;84.10;;;;;;2057467;28;20074;-84
2021/03/22 01:29:46;;;;;;;6.57;1.50;;;4.40;84.10;;;;;;2048365;29;20070;-83
2021/03/22 01:30:51;;;;;;;4.07;1.30;;;4.30;84.10;;;;;;2057726;28;20027;-83
2021/03/22 01:31:58;;;;;;;6.38;1.83;;;4.30;84.10;;;;;;2064797;28;20056;-84
2021/03/22 01:32:59;;;;;;;6.15;1.67;;;4.30;84.10;;;;;;2073497;28;20511;-84
2021/03/22 01:34:00;;;;;;;5.93;1.83;;;4.30;84.20;;;;;;2057339;28;20050;-84
2021/03/22 01:35:01;;;;;;;5.03;1.50;;;4.30;84.20;;;;;;2045473;28;20042;-83
2021/03/22 01:36:08;;;;;;;6.22;1.45;;;4.30;84.30;;;;;;2049794;28;20030;-83
2021/03/22 01:37:09;;;;;;;6.88;1.60;;;4.30;84.40;;;;;;2062359;28;20026;-83
2021/03/22 01:38:10;;;;;;;6.95;1.80;;;4.20;84.30;;;;;;2073680;28;20448;-84
2021/03/22 01:39:15;;;;;;;4.15;1.60;;;4.30;84.50;;;;;;2061023;28;20029;-83
2021/03/22 01:40:45;;;;;;;6.35;1.80;;;4.20;84.40;;;;;;2063935;28;20030;-84
2021/03/22 01:42:16;;;;;;;7.65;1.85;;;4.20;84.50;;;;;;2066128;28;20026;-84
2021/03/22 01:43:34;;;;;;;7.65;1.63;;;4.20;84.30;;;;;;2072041;28;20044;-84
2021/03/22 01:44:41;;;;;;;5.10;1.55;;;4.20;84.30;;;;;;2069937;28;20141;-84
2021/03/22 01:45:43;;;;;;;8.55;1.88;;;4.20;84.30;;;;;;2072700;28;20030;-84
2021/03/22 01:46:53;;;;;;;4.65;1.52;;;4.20;84.30;;;;;;2067954;28;20060;-84
2021/03/22 01:47:54;;;;;;;5.40;1.45;;;4.20;84.30;;;;;;2057238;28;20023;-84
2021/03/22 01:48:55;;;;;;;9.63;2.25;;;4.20;84.30;;;;;;2047286;28;20027;-84
2021/03/22 01:50:06;;;;;;;8.55;2.00;;;4.20;84.40;;;;;;2036093;29;20791;-84
2021/03/22 01:51:07;;;;;;;9.63;1.90;;;4.20;84.50;;;;;;2045965;28;20028;-84
2021/03/22 01:52:10;;;;;;;4.95;1.98;;;4.20;84.50;;;;;;2059400;28;20027;-85
2021/03/22 01:53:12;;;;;;;6.85;1.75;;;4.20;84.60;;;;;;2050052;28;20023;-84
2021/03/22 01:54:14;;;;;;;6.38;1.70;;;4.20;84.70;;;;;;2063880;28;20054;-85
2021/03/22 01:55:17;;;;;;;6.80;1.60;;;4.20;84.70;;;;;;2055827;28;20050;-84
2021/03/22 01:56:23;;;;;;;6.63;2.08;;;4.20;84.70;;;;;;2057583;28;20134;-83
2021/03/22 01:57:37;;;;;;;5.00;1.75;;;4.20;84.80;;;;;;2065816;28;20370;-83
2021/03/22 01:58:37;;;;;;;7.25;1.67;;;4.20;84.80;;;;;;2062320;28;20037;-84
2021/03/22 01:59:39;;;;;;;5.65;1.70;;;4.20;84.80;;;;;;2054393;28;20118;-83
2021/03/22 02:00:40;;;;;;;4.90;1.60;;;4.20;84.80;;;;;;2063419;28;20026;-84
2021/03/22 02:01:44;;;;;;;7.18;2.20;;;4.20;84.90;;;;;;2063816;28;20014;-84
2021/03/22 02:02:47;;;;;;;5.15;1.73;;;4.20;85.00;;;;;;2057806;28;20118;-84
2021/03/22 02:03:48;;;;;;;8.02;2.00;;;4.20;84.90;;;;;;2065270;28;20038;-83
2021/03/22 02:04:49;;;;;;;6.95;1.90;;;4.20;84.90;;;;;;2059099;28;20058;-84
2021/03/22 02:05:50;;;;;;;6.05;1.90;;;4.20;85.00;;;;;;2050995;28;20489;-83
2021/03/22 02:06:51;;;;;;;9.93;2.08;;;4.20;85.00;;;;;;2064404;28;20058;-84
2021/03/22 02:08:14;;;;;;;5.70;1.77;;;4.20;85.00;;;;;;2061311;28;20430;-83
2021/03/22 02:09:16;;;;;;;5.47;2.13;;;4.20;85.00;;;;;;2045432;28;20039;-84
2021/03/22 02:10:16;;;;;;;4.78;1.50;;;4.20;85.10;;;;;;2054142;28;20170;-85
2021/03/22 02:11:23;;;;;;;6.70;2.30;;;4.20;85.10;;;;;;2065014;28;20460;-83
2021/03/22 02:12:25;;;;;;;5.57;1.70;;;4.20;85.10;;;;;;2065273;28;20409;-84
2021/03/22 02:13:34;;;;;;;6.78;1.83;;;4.10;85.10;;;;;;2056920;28;20026;-84
2021/03/22 02:14:35;;;;;;;9.02;2.67;;;4.20;85.20;;;;;;2065859;28;20022;-83
2021/03/22 02:15:39;;;;;;;7.10;2.03;;;4.20;85.20;;;;;;2072724;28;20092;-84
2021/03/22 02:16:44;;;;;;;8.98;2.30;;;4.10;85.30;;;;;;2073197;28;20112;-83
2021/03/22 02:17:52;;;;;;;7.07;2.00;;;4.10;85.30;;;;;;2068236;28;20345;-84
2021/03/22 02:19:11;;;;;;;6.18;2.00;;;4.20;85.40;;;;;;2072929;28;20591;-84
2021/03/22 02:20:26;;;;;;;7.55;1.75;;;4.20;85.40;;;;;;2064688;28;20025;-84
2021/03/22 02:22:16;;;;;;;5.28;1.92;;;4.20;85.40;;;;;;2066583;28;20089;-83
2021/03/22 02:23:41;;;;;;;5.97;1.90;;;4.20;85.30;;;;;;2063858;28;20093;-82
2021/03/22 02:25:16;;;;;;;5.70;2.20;;;4.20;85.20;;;;;;2073022;28;20484;-83
2021/03/22 02:26:42;;;;;;;4.72;1.67;;;4.10;85.10;;;;;;2066493;28;20082;-82
2021/03/22 02:28:19;;;;;;;10.23;1.90;;;4.10;85.10;;;;;;2068896;28;20022;-83
2021/03/22 02:29:39;;;;;;;6.57;1.90;;;4.10;85.00;;;;;;2065821;28;20388;-83
2021/03/22 02:30:57;;;;;;;5.53;1.73;;;4.10;85.00;;;;;;2067390;28;20088;-83
2021/03/22 02:32:21;;;;;;;4.10;1.63;;;4.10;85.00;;;;;;2070977;28;20025;-83
2021/03/22 02:33:58;;;;;;;4.50;2.00;;;4.20;85.00;;;;;;2059619;28;20026;-83
2021/03/22 02:35:36;;;;;;;5.25;1.58;;;4.20;85.00;;;;;;2070738;28;20116;-83
2021/03/22 02:36:45;;;;;;;5.60;1.63;;;4.20;84.90;;;;;;2066830;28;20041;-83
2021/03/22 02:37:54;;;;;;;3.88;1.70;;;4.20;84.80;;;;;;2071580;28;20468;-83
2021/03/22 02:38:58;;;;;;;6.60;2.10;;;4.20;84.80;;;;;;2059004;28;20187;-84
2021/03/22 02:40:21;;;;;;;7.78;2.38;;;4.20;84.90;;;;;;2063811;28;20022;-83
2021/03/22 02:41:32;;;;;;;10.18;2.47;;;4.30;85.00;;;;;;2056972;28;20086;-83
2021/03/22 02:42:37;;;;;;;5.55;1.90;;;4.30;85.00;;;;;;2057010;28;20588;-84
2021/03/22 02:43:38;;;;;;;8.02;2.10;;;4.30;85.00;;;;;;2064693;28;20038;-84
2021/03/22 02:44:38;;;;;;;8.30;2.20;;;4.30;85.00;;;;;;2065137;28;20034;-84
2021/03/22 02:45:41;;;;;;;6.10;1.90;;;4.30;85.10;;;;;;2048146;28;20035;-84
2021/03/22 02:46:43;;;;;;;6.35;2.10;;;4.40;85.20;;;;;;2048689;28;20030;-84
2021/03/22 02:47:44;;;;;;;7.60;2.33;;;4.40;85.20;;;;;;2056812;28;20035;-84
2021/03/22 02:48:45;;;;;;;6.13;2.00;;;4.40;85.20;;;;;;2048343;28;20505;-84
2021/03/22 02:49:47;;;;;;;6.75;1.88;;;4.40;85.30;;;;;;2047800;28;20109;-84
2021/03/22 02:50:52;;;;;;;6.65;2.20;;;4.40;85.30;;;;;;2064659;28;20026;-84
2021/03/22 02:52:09;;;;;;;6.22;2.08;;;4.40;85.30;;;;;;2071802;28;20042;-84
2021/03/22 02:53:37;;;;;;;6.47;2.00;;;4.50;85.30;;;;;;2066901;28;20062;-84
2021/03/22 02:54:49;;;;;;;6.82;2.17;;;4.50;85.30;;;;;;2070269;28;20034;-84
2021/03/22 02:56:11;;;;;;;6.35;2.10;;;4.50;85.20;;;;;;2077364;28;20026;-84
2021/03/22 02:57:38;;;;;;;5.47;2.08;;;4.50;85.20;;;;;;2079615;28;21067;-84
2021/03/22 02:59:05;;;;;;;7.05;2.10;;;4.50;85.10;;;;;;2066147;28;20111;-84
2021/03/22 03:00:23;;;;;;;5.57;2.03;;;4.50;85.10;;;;;;2058963;28;20401;-84
2021/03/22 03:01:32;;;;;;;5.75;1.95;;;4.50;85.00;;;;;;2080320;28;20030;-84
2021/03/22 03:02:35;;;;;;;7.70;2.30;;;4.60;85.10;;;;;;2086197;28;20029;-84
2021/03/22 03:03:36;;;;;;;6.80;2.00;;;4.60;85.10;;;;;;2084402;28;20022;-84
2021/03/22 03:04:38;;;;;;;8.27;2.67;;;4.60;85.10;;;;;;2080777;28;20018;-84
2021/03/22 03:05:39;;;;;;;7.85;2.47;;;4.60;85.20;;;;;;2087960;28;20084;-84
2021/03/22 03:06:44;;;;;;;8.52;2.50;;;4.60;85.20;;;;;;2073533;28;20010;-84
2021/03/22 03:07:45;;;;;;;8.25;2.80;;;4.60;85.30;;;;;;2071405;28;20075;-85
2021/03/22 03:08:46;;;;;;;7.85;2.80;;;4.60;85.40;;;;;;2065320;28;20022;-85
2021/03/22 03:09:47;;;;;;;7.65;2.90;;;4.60;85.40;;;;;;2068518;28;20030;-85
2021/03/22 03:10:48;;;;;;;9.68;3.00;;;4.60;85.40;;;;;;2056882;28;20074;-85
2021/03/22 03:11:50;;;;;;;8.38;2.90;;;4.60;85.40;;;;;;2067982;28;20092;-85
2021/03/22 03:12:51;;;;;;;7.13;2.63;;;4.60;85.40;;;;;;2083114;28;20018;-84
2021/03/22 03:13:51;;;;;;;6.05;2.67;;;4.70;85.50;;;;;;2091250;28;20032;-84
2021/03/22 03:14:54;;;;;;;7.95;2.67;;;4.70;86.10;;;;;;2073985;28;20050;-84
2021/03/22 03:15:54;;;;;;;6.20;2.65;;;4.70;85.50;;;;;;2073665;28;20090;-84
2021/03/22 03:16:55;;;;;;;7.70;2.95;;;4.70;85.50;;;;;;2075366;28;20026;-85
2021/03/22 03:17:55;;;;;;;7.43;2.72;;;4.70;85.60;;;;;;2057685;28;20422;-83
2021/03/22 03:18:56;;;;;;;9.45;3.03;;;4.70;85.60;;;;;;2065067;28;20034;-84
2021/03/22 03:19:57;;;;;;;7.05;2.45;;;4.70;85.60;;;;;;2075050;28;20423;-84
2021/03/22 03:20:58;;;;;;;8.40;2.80;;;4.70;85.60;;;;;;2072804;28;20133;-84
2021/03/22 03:21:59;;;;;;;8.00;3.03;;;4.80;85.70;;;;;;2063814;28;20030;-84
2021/03/22 03:23:00;;;;;;;7.00;2.63;;;4.80;85.70;;;;;;2061992;28;20535;-84
2021/03/22 03:24:02;;;;;;;8.10;2.70;;;4.80;85.60;;;;;;2070508;28;20026;-84
2021/03/22 03:25:05;;;;;;;7.80;2.53;;;4.80;85.70;;;;;;2063534;28;20027;-83
2021/03/22 03:26:06;;;;;;;8.23;2.83;;;4.80;85.70;;;;;;2065043;28;20037;-84
2021/03/22 03:27:08;;;;;;;8.00;2.80;;;4.80;85.70;;;;;;2073558;28;20566;-84
2021/03/22 03:28:10;;;;;;;6.95;2.60;;;4.80;85.70;;;;;;2063654;28;20041;-83
2021/03/22 03:29:11;;;;;;;8.82;2.80;;;4.90;85.70;;;;;;2057085;28;20481;-83
2021/03/22 03:30:18;;;;;;;8.95;2.80;;;4.90;85.70;;;;;;2054954;28;20038;-83
2021/03/22 03:31:19;;;;;;;7.40;2.78;;;4.90;85.70;;;;;;2065664;28;20054;-83
2021/03/22 03:32:20;;;;;;;6.32;2.92;;;4.90;85.70;;;;;;2076681;28;20038;-83
2021/03/22 03:33:21;;;;;;;8.50;3.08;;;4.90;85.70;;;;;;2070909;28;20019;-84
2021/03/22 03:34:22;;;;;;;6.65;2.80;;;4.90;85.70;;;;;;2077568;28;20029;-83
2021/03/22 03:35:26;;;;;;;7.03;2.70;;;4.90;85.70;;;;;;2072427;28;20021;-83
2021/03/22 03:36:27;;;;;;;8.10;3.10;;;4.90;85.70;;;;;;2073357;28;20052;-82
2021/03/22 03:37:28;;;;;;;8.32;2.53;;;4.90;85.70;;;;;;2081175;28;20053;-82
2021/03/22 03:38:29;;;;;;;8.00;3.05;;;4.90;85.70;;;;;;2085808;28;20017;-84
2021/03/22 03:39:29;;;;;;;7.78;3.35;;;4.90;85.80;;;;;;2080961;28;20549;-84
2021/03/22 03:40:35;;;;;;;7.75;2.70;;;4.90;85.70;;;;;;2060857;28;20401;-84
2021/03/22 03:41:38;;;;;;;7.25;2.70;;;5.00;85.90;;;;;;2054517;28;20027;-85
2021/03/22 03:42:39;;;;;;;7.13;2.85;;;5.00;85.90;;;;;;2071581;28;20493;-84
2021/03/22 03:43:40;;;;;;;8.35;3.30;;;5.00;85.90;;;;;;2070092;28;20038;-84
2021/03/22 03:44:41;;;;;;;6.65;2.70;;;5.00;85.90;;;;;;2055825;28;20070;-84
2021/03/22 03:45:44;;;;;;;7.38;2.85;;;5.00;85.90;;;;;;2063706;28;20042;-84
2021/03/22 03:46:45;;;;;;;8.65;2.83;;;5.00;85.90;;;;;;2053722;28;20115;-84
2021/03/22 03:47:46;;;;;;;7.50;3.10;;;5.00;85.90;;;;;;2062412;28;20034;-85
2021/03/22 03:48:47;;;;;;;9.05;3.15;;;5.00;85.90;;;;;;2063818;28;20046;-84
2021/03/22 03:49:48;;;;;;;7.85;2.83;;;5.00;85.90;;;;;;2066099;28;20026;-84
2021/03/22 03:50:49;;;;;;;10.63;2.97;;;5.00;85.90;;;;;;2069688;28;20113;-85
2021/03/22 03:51:51;;;;;;;8.65;2.90;;;5.00;86.00;;;;;;2056364;28;20120;-84
2021/03/22 03:52:52;;;;;;;9.50;3.10;;;5.00;86.00;;;;;;2062928;28;20452;-84
2021/03/22 03:53:53;;;;;;;8.52;3.22;;;5.00;86.00;;;;;;2067633;28;20038;-84
2021/03/22 03:54:53;;;;;;;7.75;2.78;;;5.00;86.00;;;;;;2068575;28;20493;-84
2021/03/22 03:55:55;;;;;;;6.95;2.90;;;5.00;86.00;;;;;;2064399;28;20033;-85
2021/03/22 03:56:56;;;;;;;9.00;3.00;;;5.00;86.00;;;;;;2061996;28;20077;-84
2021/03/22 03:57:57;;;;;;;8.02;3.13;;;5.10;86.10;;;;;;2066131;28;20097;-84
2021/03/22 03:58:58;;;;;;;8.90;3.15;;;5.10;86.10;;;;;;2068979;28;20037;-84
2021/03/22 03:59:59;;;;;;;6.10;3.00;;;5.00;86.10;;;;;;2063242;28;20125;-85
2021/03/22 04:01:00;;;;;;;9.85;3.22;;;5.00;86.10;;;;;;2065285;28;20114;-84
2021/03/22 04:02:00;;;;;;;6.20;2.88;;;5.00;86.70;;;;;;2065769;28;20023;-84
2021/03/22 04:03:22;;;;;;;11.13;3.35;;;5.00;86.10;;;;;;2065116;28;20118;-85
2021/03/22 04:04:23;;;;;;;7.80;2.90;;;5.00;86.20;;;;;;2074169;28;20046;-84
2021/03/22 04:05:27;;;;;;;7.95;3.17;;;5.00;86.20;;;;;;2073561;28;20033;-85
2021/03/22 04:06:31;;;;;;;7.88;3.05;;;5.00;86.20;;;;;;2072968;28;20034;-84
2021/03/22 04:07:32;;;;;;;7.30;2.88;;;5.00;86.20;;;;;;2065720;28;20026;-85
2021/03/22 04:08:35;;;;;;;10.05;3.45;;;5.00;86.20;;;;;;2063954;28;20030;-84
2021/03/22 04:09:35;;;;;;;8.65;3.30;;;5.00;86.20;;;;;;2065395;28;20121;-85
2021/03/22 04:10:36;;;;;;;7.35;3.28;;;5.00;86.30;;;;;;2062403;28;20125;-85
2021/03/22 04:11:45;;;;;;;8.75;3.13;;;5.00;86.30;;;;;;2058147;28;20031;-84
2021/03/22 04:12:46;;;;;;;9.15;3.40;;;5.00;86.40;;;;;;2061466;28;20094;-84
2021/03/22 04:13:47;;;;;;;7.18;2.95;;;5.00;86.30;;;;;;2080723;28;20420;-84
2021/03/22 04:14:48;;;;;;;8.48;2.75;;;5.00;86.40;;;;;;2070826;28;20030;-84
2021/03/22 04:15:48;;;;;;;9.35;3.30;;;5.00;86.40;;;;;;2071715;28;20393;-84
2021/03/22 04:16:50;;;;;;;7.38;2.95;;;5.10;86.40;;;;;;2073442;28;20417;-84
2021/03/22 04:17:51;;;;;;;7.68;3.28;;;5.00;86.40;;;;;;2055927;28;20031;-84
2021/03/22 04:18:52;;;;;;;7.70;3.03;;;5.10;86.50;;;;;;2054184;28;20561;-84
2021/03/22 04:19:52;;;;;;;9.82;3.20;;;5.10;87.10;;;;;;2061277;28;20030;-84
2021/03/22 04:20:53;;;;;;;7.55;3.20;;;5.10;86.50;;;;;;2064262;28;20073;-84
2021/03/22 04:21:54;;;;;;;6.90;3.10;;;5.10;86.50;;;;;;2065854;28;20026;-84
2021/03/22 04:22:55;;;;;;;7.00;3.03;;;5.10;86.50;;;;;;2056533;28;20077;-84
2021/03/22 04:23:58;;;;;;;9.73;3.53;;;5.10;86.50;;;;;;2055650;28;20031;-84
2021/03/22 04:24:58;;;;;;;11.05;3.78;;;5.10;86.50;;;;;;2057487;28;20038;-84
2021/03/22 04:26:00;;;;;;;8.93;3.40;;;5.10;86.50;;;;;;2059681;28;20027;-84
2021/03/22 04:27:00;;;;;;;10.05;3.22;;;5.10;86.50;;;;;;2065155;28;20034;-84
2021/03/22 04:28:02;;;;;;;9.43;3.53;;;5.10;86.60;;;;;;2073958;28;20018;-84
2021/03/22 04:29:03;;;;;;;10.05;3.45;;;5.10;86.60;;;;;;2074091;28;20125;-84
2021/03/22 04:30:06;;;;;;;7.78;3.08;;;5.10;86.60;;;;;;2076892;28;20021;-84
2021/03/22 04:31:09;;;;;;;7.03;3.20;;;5.10;86.70;;;;;;2071121;28;20029;-83
2021/03/22 04:32:10;;;;;;;9.32;3.50;;;5.10;86.70;;;;;;2065564;28;20033;-83
2021/03/22 04:33:10;;;;;;;11.05;3.50;;;5.10;86.70;;;;;;2071895;28;20034;-83
2021/03/22 04:34:14;;;;;;;9.43;3.30;;;5.10;86.70;;;;;;2048477;28;20102;-83
2021/03/22 04:35:14;;;;;;;8.73;3.47;;;5.10;86.70;;;;;;2049084;28;20035;-83
2021/03/22 04:36:15;;;;;;;8.52;3.30;;;5.10;86.70;;;;;;2065772;28;20018;-83
2021/03/22 04:37:16;;;;;;;8.55;3.45;;;5.10;86.70;;;;;;2081005;28;20021;-84
2021/03/22 04:38:17;;;;;;;9.90;3.60;;;5.10;86.70;;;;;;2065735;28;20069;-83
2021/03/22 04:39:18;;;;;;;9.15;3.70;;;5.10;86.70;;;;;;2055468;28;20022;-83
2021/03/22 04:40:23;;;;;;;8.88;3.40;;;5.10;86.70;;;;;;2056493;28;20133;-83
2021/03/22 04:41:24;;;;;;;8.50;3.75;;;5.10;86.70;;;;;;2057001;28;20085;-84
2021/03/22 04:42:25;;;;;;;8.80;3.60;;;5.10;86.70;;;;;;2065011;28;20566;-85
2021/03/22 04:43:26;;;;;;;8.75;3.35;;;5.10;87.30;;;;;;2057748;28;20592;-84
2021/03/22 04:44:26;;;;;;;9.13;3.88;;;5.10;86.70;;;;;;2047986;28;20038;-84
2021/03/22 04:45:29;;;;;;;12.68;3.42;;;5.10;86.70;;;;;;2057469;28;20031;-84
2021/03/22 04:46:30;;;;;;;9.27;3.50;;;5.10;86.80;;;;;;2065473;28;20093;-84
2021/03/22 04:47:30;;;;;;;9.48;3.38;;;5.10;86.70;;;;;;2064518;28;20022;-84
2021/03/22 04:48:31;;;;;;;9.77;3.38;;;5.10;86.70;;;;;;2064297;28;20026;-84
2021/03/22 04:49:32;;;;;;;7.95;3.75;;;5.10;86.70;;;;;;2063758;28;20034;-84
2021/03/22 04:50:33;;;;;;;9.70;3.78;;;5.10;87.30;;;;;;2063879;28;20026;-84
2021/03/22 04:51:33;;;;;;;7.88;3.30;;;5.10;86.80;;;;;;2064614;28;20100;-84
2021/03/22 04:52:34;;;;;;;8.82;3.30;;;5.10;86.80;;;;;;2073855;28;20033;-83
2021/03/22 04:53:35;;;;;;;9.82;3.53;;;5.20;86.90;;;;;;2077848;28;20132;-83
2021/03/22 04:54:35;;;;;;;8.38;3.60;;;5.10;86.90;;;;;;2056498;28;20035;-84
2021/03/22 04:55:36;;;;;;;7.43;3.47;;;5.10;86.90;;;;;;2048653;28;20039;-84
2021/03/22 04:56:38;;;;;;;11.10;3.78;;;5.10;86.90;;;;;;2063499;28;20507;-83
2021/03/22 04:57:39;;;;;;;11.07;4.38;;;5.10;87.50;;;;;;2063685;28;20030;-84
2021/03/22 04:58:40;;;;;;;8.68;3.65;;;5.10;87.00;;;;;;2073669;28;20045;-83
2021/03/22 04:59:41;;;;;;;10.35;3.97;;;5.10;87.00;;;;;;2072152;28;20437;-83
2021/03/22 05:00:44;;;;;;;9.38;3.55;;;5.20;87.00;;;;;;2064802;28;20023;-84
2021/03/22 05:01:45;;;;;;;9.43;3.72;;;5.10;87.00;;;;;;2065400;28;20037;-84
2021/03/22 05:02:46;;;;;;;10.10;3.90;;;5.20;87.00;;;;;;2064960;28;20030;-84
2021/03/22 05:03:46;;;;;;;10.05;3.45;;;5.10;87.00;;;;;;2073359;28;20519;-84
2021/03/22 05:04:47;;;;;;;9.20;3.45;;;5.10;87.10;;;;;;2077914;28;20075;-83
2021/03/22 05:05:48;;;;;;;10.52;3.72;;;5.20;87.10;;;;;;2081919;28;20056;-84
2021/03/22 05:06:49;;;;;;;9.45;3.53;;;5.10;87.10;;;;;;2070565;28;20960;-84
2021/03/22 05:07:50;;;;;;;9.63;4.10;;;5.20;87.10;;;;;;2055681;28;20035;-84
2021/03/22 05:08:51;;;;;;;9.35;3.70;;;5.20;87.80;;;;;;2056509;28;20018;-84
2021/03/22 05:09:52;;;;;;;8.65;3.92;;;5.20;87.20;;;;;;2070953;28;20108;-83
2021/03/22 05:10:58;;;;;;;10.82;3.53;;;5.20;87.20;;;;;;2082020;28;20040;-84
2021/03/22 05:11:58;;;;;;;9.25;3.80;;;5.20;87.20;;;;;;2080380;28;20071;-84
2021/03/22 05:12:59;;;;;;;9.77;3.83;;;5.20;87.30;;;;;;2070578;28;20491;-84
2021/03/22 05:14:00;;;;;;;9.48;3.78;;;5.20;87.30;;;;;;2059608;28;20022;-84
2021/03/22 05:15:00;;;;;;;8.38;3.58;;;5.20;87.30;;;;;;2062950;28;20026;-84
2021/03/22 05:16:02;;;;;;;9.35;3.60;;;5.20;87.40;;;;;;2071147;28;20064;-84
2021/03/22 05:17:03;;;;;;;7.45;3.63;;;5.20;87.40;;;;;;2081162;28;20025;-84
2021/03/22 05:18:05;;;;;;;9.00;3.67;;;5.20;87.40;;;;;;2080768;28;20071;-84
2021/03/22 05:19:06;;;;;;;11.52;3.80;;;5.20;87.40;;;;;;2081091;28;20531;-84
2021/03/22 05:20:10;;;;;;;9.68;3.65;;;5.20;87.50;;;;;;2072801;28;20034;-84
2021/03/22 05:21:11;;;;;;;9.13;3.45;;;5.20;87.50;;;;;;2065887;28;20038;-84
2021/03/22 05:22:12;;;;;;;11.18;3.55;;;5.20;87.50;;;;;;2073820;28;20026;-84
2021/03/22 05:23:19;;;;;;;8.02;3.60;;;5.20;87.50;;;;;;2078733;28;20033;-84
2021/03/22 05:24:19;;;;;;;8.63;3.53;;;5.10;87.50;;;;;;2080030;28;20038;-83
2021/03/22 05:25:20;;;;;;;8.45;3.20;;;5.10;87.60;;;;;;2064803;28;20106;-84
2021/03/22 05:26:21;;;;;;;8.65;3.05;;;5.20;87.60;;;;;;2056754;28;20085;-83
2021/03/22 05:27:21;;;;;;;8.07;3.22;;;5.20;87.70;;;;;;2058506;28;20121;-84
2021/03/22 05:28:25;;;;;;;7.15;3.00;;;5.20;87.70;;;;;;2063546;28;20030;-84
2021/03/22 05:29:27;;;;;;;9.20;3.15;;;5.20;87.70;;;;;;2073449;28;20076;-84
2021/03/22 05:30:27;;;;;;;9.00;3.60;;;5.10;87.70;;;;;;2073638;28;20030;-84
2021/03/22 05:31:31;;;;;;;7.15;3.05;;;5.20;87.80;;;;;;2062900;28;20121;-84
2021/03/22 05:32:34;;;;;;;10.05;3.30;;;5.20;87.80;;;;;;2064602;28;20026;-84
2021/03/22 05:33:35;;;;;;;7.45;2.90;;;5.20;87.80;;;;;;2081569;28;20022;-84
2021/03/22 05:34:35;;;;;;;8.95;3.30;;;5.20;87.80;;;;;;2072773;28;20034;-84
2021/03/22 05:35:37;;;;;;;9.32;3.20;;;5.20;87.80;;;;;;2064208;28;20459;-84
2021/03/22 05:36:38;;;;;;;6.97;2.90;;;5.20;87.80;;;;;;2058057;28;20122;-84